sensor_id;sensor_type;location;lat;lon;timestamp;pressure;altitude;pressure_sealevel;temperature;humidity
59493;BME280;45497;43.996;22.876;2023-11-19T00:01:06;101348.34;;;7.47;48.97
59493;BME280;45497;43.996;22.876;2023-11-19T00:03:32;101337.13;;;7.55;49.13
59493;BME280;45497;43.996;22.876;2023-11-19T00:05:59;101352.03;;;7.35;49.11
59493;BME280;45497;43.996;22.876;2023-11-19T00:08:25;101330.06;;;7.25;49.42
59493;BME280;45497;43.996;22.876;2023-11-19T00:10:50;101333.84;;;7.32;49.46
59493;BME280;45497;43.996;22.876;2023-11-19T00:13:16;101337.09;;;7.15;49.75
59493;BME280;45497;43.996;22.876;2023-11-19T00:15:42;101330.63;;;7.28;49.93
59493;BME280;45497;43.996;22.876;2023-11-19T00:18:07;101322.38;;;7.12;49.85
59493;BME280;45497;43.996;22.876;2023-11-19T00:20:33;101330.16;;;7.14;50.02
59493;BME280;45497;43.996;22.876;2023-11-19T00:23:00;101339.56;;;7.06;50.04
59493;BME280;45497;43.996;22.876;2023-11-19T00:25:27;101333.84;;;7.01;50.41
59493;BME280;45497;43.996;22.876;2023-11-19T00:27:54;101358.69;;;6.99;50.54
59493;BME280;45497;43.996;22.876;2023-11-19T00:30:21;101364.19;;;7.17;50.20
59493;BME280;45497;43.996;22.876;2023-11-19T00:32:47;101343.38;;;7.23;49.86
59493;BME280;45497;43.996;22.876;2023-11-19T00:35:12;101347.63;;;7.15;50.16
59493;BME280;45497;43.996;22.876;2023-11-19T00:37:43;101353.78;;;7.15;50.22
59493;BME280;45497;43.996;22.876;2023-11-19T00:40:12;101346.22;;;7.01;50.67
59493;BME280;45497;43.996;22.876;2023-11-19T00:42:38;101340.66;;;7.04;50.22
59493;BME280;45497;43.996;22.876;2023-11-19T00:45:05;101342.94;;;7.18;50.09
59493;BME280;45497;43.996;22.876;2023-11-19T00:47:39;101349.53;;;7.34;49.55
59493;BME280;45497;43.996;22.876;2023-11-19T00:50:05;101350.00;;;7.08;50.28
59493;BME280;45497;43.996;22.876;2023-11-19T00:52:32;101364.91;;;6.98;50.35
59493;BME280;45497;43.996;22.876;2023-11-19T00:54:58;101361.41;;;7.18;49.99
59493;BME280;45497;43.996;22.876;2023-11-19T00:57:25;101366.41;;;7.21;49.70
59493;BME280;45497;43.996;22.876;2023-11-19T00:59:52;101357.25;;;7.25;49.90
59493;BME280;45497;43.996;22.876;2023-11-19T01:02:18;101356.28;;;7.17;49.99
59493;BME280;45497;43.996;22.876;2023-11-19T01:04:46;101352.00;;;7.25;49.24
59493;BME280;45497;43.996;22.876;2023-11-19T01:07:13;101366.59;;;7.30;49.41
59493;BME280;45497;43.996;22.876;2023-11-19T01:09:42;101360.44;;;7.19;49.40
59493;BME280;45497;43.996;22.876;2023-11-19T01:12:11;101358.75;;;7.18;49.30
59493;BME280;45497;43.996;22.876;2023-11-19T01:14:39;101373.75;;;7.18;49.23
59493;BME280;45497;43.996;22.876;2023-11-19T01:17:06;101362.50;;;7.16;49.05
59493;BME280;45497;43.996;22.876;2023-11-19T01:19:36;101369.84;;;7.12;49.16
59493;BME280;45497;43.996;22.876;2023-11-19T01:22:03;101370.16;;;7.19;48.94
59493;BME280;45497;43.996;22.876;2023-11-19T01:24:33;101362.50;;;7.16;49.17
59493;BME280;45497;43.996;22.876;2023-11-19T01:26:59;101353.91;;;7.14;48.84
59493;BME280;45497;43.996;22.876;2023-11-19T01:29:27;101359.16;;;7.14;48.83
59493;BME280;45497;43.996;22.876;2023-11-19T01:31:58;101349.09;;;7.28;48.86
59493;BME280;45497;43.996;22.876;2023-11-19T01:34:27;101355.44;;;7.16;49.06
59493;BME280;45497;43.996;22.876;2023-11-19T01:36:53;101355.75;;;7.23;49.01
59493;BME280;45497;43.996;22.876;2023-11-19T01:39:19;101371.47;;;7.34;49.30
59493;BME280;45497;43.996;22.876;2023-11-19T01:41:49;101366.06;;;7.36;48.93
59493;BME280;45497;43.996;22.876;2023-11-19T01:44:15;101357.84;;;7.29;49.11
59493;BME280;45497;43.996;22.876;2023-11-19T01:46:45;101360.28;;;7.52;48.70
59493;BME280;45497;43.996;22.876;2023-11-19T01:49:18;101367.75;;;7.46;48.70
59493;BME280;45497;43.996;22.876;2023-11-19T01:52:08;101365.31;;;7.55;49.03
59493;BME280;45497;43.996;22.876;2023-11-19T01:54:34;101366.69;;;7.49;48.73
59493;BME280;45497;43.996;22.876;2023-11-19T01:57:00;101362.78;;;7.53;48.97
59493;BME280;45497;43.996;22.876;2023-11-19T01:59:26;101371.16;;;7.58;48.55
59493;BME280;45497;43.996;22.876;2023-11-19T02:01:54;101368.34;;;7.50;48.86
59493;BME280;45497;43.996;22.876;2023-11-19T02:04:20;101371.59;;;7.33;49.26
59493;BME280;45497;43.996;22.876;2023-11-19T02:06:47;101356.97;;;7.19;49.38
59493;BME280;45497;43.996;22.876;2023-11-19T02:09:18;101363.97;;;7.30;49.26
59493;BME280;45497;43.996;22.876;2023-11-19T02:11:45;101365.84;;;7.18;49.36
59493;BME280;45497;43.996;22.876;2023-11-19T02:14:15;101357.22;;;7.16;49.33
59493;BME280;45497;43.996;22.876;2023-11-19T02:16:43;101364.00;;;7.08;49.83
59493;BME280;45497;43.996;22.876;2023-11-19T02:19:09;101362.88;;;7.11;49.62
59493;BME280;45497;43.996;22.876;2023-11-19T02:21:37;101360.22;;;7.01;50.11
59493;BME280;45497;43.996;22.876;2023-11-19T02:24:06;101359.09;;;7.04;49.80
59493;BME280;45497;43.996;22.876;2023-11-19T02:26:49;101356.84;;;6.68;50.93
59493;BME280;45497;43.996;22.876;2023-11-19T02:29:17;101340.16;;;6.68;50.84
59493;BME280;45497;43.996;22.876;2023-11-19T02:31:43;101358.19;;;6.63;50.96
59493;BME280;45497;43.996;22.876;2023-11-19T02:34:12;101342.69;;;6.69;50.81
59493;BME280;45497;43.996;22.876;2023-11-19T02:36:38;101360.25;;;6.59;50.76
59493;BME280;45497;43.996;22.876;2023-11-19T02:39:09;101364.34;;;6.52;51.09
59493;BME280;45497;43.996;22.876;2023-11-19T02:41:37;101347.06;;;6.59;50.86
59493;BME280;45497;43.996;22.876;2023-11-19T02:44:07;101353.53;;;6.55;51.24
59493;BME280;45497;43.996;22.876;2023-11-19T02:46:33;101339.63;;;6.43;50.86
59493;BME280;45497;43.996;22.876;2023-11-19T02:48:59;101343.59;;;6.59;51.00
59493;BME280;45497;43.996;22.876;2023-11-19T02:51:28;101340.94;;;6.59;50.77
59493;BME280;45497;43.996;22.876;2023-11-19T02:54:01;101345.78;;;6.54;51.12
59493;BME280;45497;43.996;22.876;2023-11-19T02:56:32;101320.34;;;6.43;51.46
59493;BME280;45497;43.996;22.876;2023-11-19T02:59:23;101334.78;;;6.27;51.45
59493;BME280;45497;43.996;22.876;2023-11-19T03:02:08;101347.31;;;6.56;50.64
59493;BME280;45497;43.996;22.876;2023-11-19T03:04:37;101358.97;;;6.54;50.69
59493;BME280;45497;43.996;22.876;2023-11-19T03:07:09;101364.94;;;6.56;50.35
59493;BME280;45497;43.996;22.876;2023-11-19T03:09:36;101372.09;;;6.32;50.97
59493;BME280;45497;43.996;22.876;2023-11-19T03:12:03;101376.25;;;6.35;51.25
59493;BME280;45497;43.996;22.876;2023-11-19T03:14:33;101374.97;;;6.29;51.21
59493;BME280;45497;43.996;22.876;2023-11-19T03:16:59;101387.50;;;6.37;51.25
59493;BME280;45497;43.996;22.876;2023-11-19T03:19:25;101385.44;;;6.41;50.72
59493;BME280;45497;43.996;22.876;2023-11-19T03:21:52;101390.59;;;6.42;50.84
59493;BME280;45497;43.996;22.876;2023-11-19T03:24:28;101381.94;;;6.30;50.70
59493;BME280;45497;43.996;22.876;2023-11-19T03:26:54;101390.31;;;6.24;50.97
59493;BME280;45497;43.996;22.876;2023-11-19T03:29:20;101383.88;;;6.17;51.56
59493;BME280;45497;43.996;22.876;2023-11-19T03:31:45;101370.81;;;6.16;51.40
59493;BME280;45497;43.996;22.876;2023-11-19T03:34:12;101375.38;;;6.13;51.30
59493;BME280;45497;43.996;22.876;2023-11-19T03:36:37;101358.66;;;5.92;51.56
59493;BME280;45497;43.996;22.876;2023-11-19T03:39:04;101368.59;;;6.11;51.26
59493;BME280;45497;43.996;22.876;2023-11-19T03:41:30;101370.63;;;6.07;51.46
59493;BME280;45497;43.996;22.876;2023-11-19T03:43:57;101365.72;;;6.14;51.20
59493;BME280;45497;43.996;22.876;2023-11-19T03:46:22;101370.16;;;6.35;51.11
59493;BME280;45497;43.996;22.876;2023-11-19T03:48:49;101365.16;;;6.31;50.93
59493;BME280;45497;43.996;22.876;2023-11-19T03:51:15;101371.41;;;6.30;50.70
59493;BME280;45497;43.996;22.876;2023-11-19T03:53:47;101362.22;;;6.25;50.73
59493;BME280;45497;43.996;22.876;2023-11-19T03:56:14;101353.38;;;6.15;51.23
59493;BME280;45497;43.996;22.876;2023-11-19T03:58:43;101370.72;;;6.17;51.27
59493;BME280;45497;43.996;22.876;2023-11-19T04:01:12;101359.28;;;5.96;51.60
59493;BME280;45497;43.996;22.876;2023-11-19T04:03:40;101354.63;;;5.88;51.96
59493;BME280;45497;43.996;22.876;2023-11-19T04:06:07;101366.53;;;6.15;51.61
59493;BME280;45497;43.996;22.876;2023-11-19T04:08:41;101363.41;;;6.21;51.15
59493;BME280;45497;43.996;22.876;2023-11-19T04:11:10;101357.38;;;6.30;50.94
59493;BME280;45497;43.996;22.876;2023-11-19T04:13:38;101356.31;;;6.32;51.11
59493;BME280;45497;43.996;22.876;2023-11-19T04:16:05;101356.19;;;6.23;51.53
59493;BME280;45497;43.996;22.876;2023-11-19T04:18:32;101350.63;;;6.37;51.00
59493;BME280;45497;43.996;22.876;2023-11-19T04:21:05;101344.59;;;6.25;51.13
59493;BME280;45497;43.996;22.876;2023-11-19T04:23:35;101346.53;;;6.23;51.47
59493;BME280;45497;43.996;22.876;2023-11-19T04:26:05;101356.41;;;6.31;50.77
59493;BME280;45497;43.996;22.876;2023-11-19T04:28:38;101379.81;;;6.45;51.01
59493;BME280;45497;43.996;22.876;2023-11-19T04:31:07;101386.19;;;6.43;50.94
59493;BME280;45497;43.996;22.876;2023-11-19T04:33:37;101384.38;;;6.43;50.70
59493;BME280;45497;43.996;22.876;2023-11-19T04:36:10;101390.50;;;6.65;50.37
59493;BME280;45497;43.996;22.876;2023-11-19T04:38:38;101380.41;;;6.91;49.74
59493;BME280;45497;43.996;22.876;2023-11-19T04:41:26;101385.66;;;6.91;49.55
59493;BME280;45497;43.996;22.876;2023-11-19T04:44:03;101382.09;;;6.92;49.42
59493;BME280;45497;43.996;22.876;2023-11-19T04:46:31;101385.63;;;7.02;49.47
59493;BME280;45497;43.996;22.876;2023-11-19T04:49:02;101376.03;;;7.01;49.41
59493;BME280;45497;43.996;22.876;2023-11-19T04:51:49;101376.81;;;6.92;49.57
59493;BME280;45497;43.996;22.876;2023-11-19T04:54:21;101391.97;;;6.79;49.58
59493;BME280;45497;43.996;22.876;2023-11-19T04:56:48;101397.75;;;6.73;49.74
59493;BME280;45497;43.996;22.876;2023-11-19T04:59:21;101385.44;;;6.52;49.94
59493;BME280;45497;43.996;22.876;2023-11-19T05:01:59;101386.13;;;6.54;50.30
59493;BME280;45497;43.996;22.876;2023-11-19T05:04:32;101405.34;;;6.66;49.98
59493;BME280;45497;43.996;22.876;2023-11-19T05:07:01;101401.59;;;6.89;49.68
59493;BME280;45497;43.996;22.876;2023-11-19T05:09:35;101404.06;;;6.81;49.74
59493;BME280;45497;43.996;22.876;2023-11-19T05:12:03;101404.78;;;6.83;49.69
59493;BME280;45497;43.996;22.876;2023-11-19T05:14:29;101393.03;;;6.66;49.68
59493;BME280;45497;43.996;22.876;2023-11-19T05:16:57;101399.94;;;6.46;50.21
59493;BME280;45497;43.996;22.876;2023-11-19T05:19:25;101412.03;;;6.70;50.31
59493;BME280;45497;43.996;22.876;2023-11-19T05:21:58;101417.81;;;6.85;49.93
59493;BME280;45497;43.996;22.876;2023-11-19T05:24:34;101423.56;;;6.90;49.90
59493;BME280;45497;43.996;22.876;2023-11-19T05:27:03;101428.53;;;6.93;49.82
59493;BME280;45497;43.996;22.876;2023-11-19T05:29:29;101432.16;;;6.92;49.96
59493;BME280;45497;43.996;22.876;2023-11-19T05:32:00;101431.47;;;6.90;50.10
59493;BME280;45497;43.996;22.876;2023-11-19T05:34:28;101415.84;;;6.77;49.90
59493;BME280;45497;43.996;22.876;2023-11-19T05:36:54;101408.34;;;6.82;49.85
59493;BME280;45497;43.996;22.876;2023-11-19T05:39:27;101404.44;;;6.98;49.55
59493;BME280;45497;43.996;22.876;2023-11-19T05:41:53;101407.91;;;6.98;49.62
59493;BME280;45497;43.996;22.876;2023-11-19T05:44:19;101396.16;;;6.81;49.74
59493;BME280;45497;43.996;22.876;2023-11-19T05:46:45;101403.25;;;6.81;49.80
59493;BME280;45497;43.996;22.876;2023-11-19T05:49:14;101413.25;;;6.87;49.60
59493;BME280;45497;43.996;22.876;2023-11-19T05:51:43;101428.56;;;6.72;49.72
59493;BME280;45497;43.996;22.876;2023-11-19T05:54:09;101433.38;;;6.35;50.82
59493;BME280;45497;43.996;22.876;2023-11-19T05:56:37;101423.00;;;6.22;50.93
59493;BME280;45497;43.996;22.876;2023-11-19T05:59:03;101420.84;;;6.27;50.95
59493;BME280;45497;43.996;22.876;2023-11-19T06:01:34;101419.94;;;6.05;51.51
59493;BME280;45497;43.996;22.876;2023-11-19T06:04:05;101414.66;;;6.05;52.04
59493;BME280;45497;43.996;22.876;2023-11-19T06:06:36;101420.53;;;6.09;51.30
59493;BME280;45497;43.996;22.876;2023-11-19T06:09:03;101431.75;;;5.88;51.95
59493;BME280;45497;43.996;22.876;2023-11-19T06:11:32;101436.19;;;5.88;51.82
59493;BME280;45497;43.996;22.876;2023-11-19T06:14:05;101439.28;;;5.93;52.03
59493;BME280;45497;43.996;22.876;2023-11-19T06:16:31;101438.25;;;6.07;51.95
59493;BME280;45497;43.996;22.876;2023-11-19T06:18:58;101436.78;;;6.03;52.06
59493;BME280;45497;43.996;22.876;2023-11-19T06:21:27;101434.47;;;6.21;51.52
59493;BME280;45497;43.996;22.876;2023-11-19T06:23:52;101435.97;;;6.02;51.75
59493;BME280;45497;43.996;22.876;2023-11-19T06:26:19;101428.03;;;6.13;51.60
59493;BME280;45497;43.996;22.876;2023-11-19T06:28:51;101435.44;;;6.08;51.86
59493;BME280;45497;43.996;22.876;2023-11-19T06:31:19;101449.41;;;6.31;51.32
59493;BME280;45497;43.996;22.876;2023-11-19T06:33:46;101439.03;;;6.19;51.57
59493;BME280;45497;43.996;22.876;2023-11-19T06:36:14;101440.56;;;6.32;51.22
59493;BME280;45497;43.996;22.876;2023-11-19T06:38:44;101451.75;;;6.46;50.71
59493;BME280;45497;43.996;22.876;2023-11-19T06:41:09;101455.38;;;6.45;50.74
59493;BME280;45497;43.996;22.876;2023-11-19T06:43:41;101448.69;;;6.29;51.15
59493;BME280;45497;43.996;22.876;2023-11-19T06:46:17;101456.66;;;6.50;51.19
59493;BME280;45497;43.996;22.876;2023-11-19T06:48:47;101452.63;;;6.46;50.92
59493;BME280;45497;43.996;22.876;2023-11-19T06:51:18;101447.72;;;6.42;50.73
59493;BME280;45497;43.996;22.876;2023-11-19T06:53:44;101455.38;;;6.45;50.66
59493;BME280;45497;43.996;22.876;2023-11-19T06:56:23;101455.72;;;6.40;51.08
59493;BME280;45497;43.996;22.876;2023-11-19T06:58:49;101460.06;;;6.41;50.67
59493;BME280;45497;43.996;22.876;2023-11-19T07:01:19;101462.41;;;6.44;50.79
59493;BME280;45497;43.996;22.876;2023-11-19T07:03:49;101461.88;;;6.62;50.44
59493;BME280;45497;43.996;22.876;2023-11-19T07:06:17;101472.75;;;6.68;50.16
59493;BME280;45497;43.996;22.876;2023-11-19T07:08:46;101461.28;;;6.58;50.45
59493;BME280;45497;43.996;22.876;2023-11-19T07:11:12;101476.75;;;6.63;50.20
59493;BME280;45497;43.996;22.876;2023-11-19T07:13:41;101475.19;;;6.60;50.19
59493;BME280;45497;43.996;22.876;2023-11-19T07:16:07;101484.94;;;6.81;50.02
59493;BME280;45497;43.996;22.876;2023-11-19T07:18:40;101480.09;;;6.86;49.82
59493;BME280;45497;43.996;22.876;2023-11-19T07:21:10;101470.97;;;7.11;49.56
59493;BME280;45497;43.996;22.876;2023-11-19T07:23:36;101503.88;;;7.28;49.08
59493;BME280;45497;43.996;22.876;2023-11-19T07:26:07;101494.53;;;7.03;49.31
59493;BME280;45497;43.996;22.876;2023-11-19T07:28:36;101468.81;;;6.95;49.34
59493;BME280;45497;43.996;22.876;2023-11-19T07:31:02;101476.72;;;6.95;48.91
59493;BME280;45497;43.996;22.876;2023-11-19T07:33:28;101463.78;;;6.92;48.92
59493;BME280;45497;43.996;22.876;2023-11-19T07:35:57;101481.72;;;6.98;49.06
59493;BME280;45497;43.996;22.876;2023-11-19T07:38:27;101497.22;;;6.92;49.37
59493;BME280;45497;43.996;22.876;2023-11-19T07:40:52;101498.38;;;7.20;48.59
59493;BME280;45497;43.996;22.876;2023-11-19T07:43:21;101499.84;;;7.13;48.65
59493;BME280;45497;43.996;22.876;2023-11-19T07:45:49;101519.47;;;7.20;48.56
59493;BME280;45497;43.996;22.876;2023-11-19T07:48:17;101510.28;;;7.35;48.38
59493;BME280;45497;43.996;22.876;2023-11-19T07:50:49;101501.28;;;7.69;48.25
59493;BME280;45497;43.996;22.876;2023-11-19T07:53:24;101488.31;;;7.56;47.92
59493;BME280;45497;43.996;22.876;2023-11-19T07:55:53;101489.44;;;7.84;48.00
59493;BME280;45497;43.996;22.876;2023-11-19T07:58:41;101498.63;;;7.90;47.79
59493;BME280;45497;43.996;22.876;2023-11-19T08:01:07;101506.09;;;7.84;47.55
59493;BME280;45497;43.996;22.876;2023-11-19T08:03:36;101501.81;;;7.83;47.29
59493;BME280;45497;43.996;22.876;2023-11-19T08:06:03;101491.06;;;7.75;47.54
59493;BME280;45497;43.996;22.876;2023-11-19T08:08:35;101493.38;;;7.99;47.11
59493;BME280;45497;43.996;22.876;2023-11-19T08:11:10;101482.03;;;8.28;46.70
59493;BME280;45497;43.996;22.876;2023-11-19T08:13:36;101482.53;;;8.02;46.91
59493;BME280;45497;43.996;22.876;2023-11-19T08:16:06;101488.88;;;8.31;47.02
59493;BME280;45497;43.996;22.876;2023-11-19T08:18:31;101491.59;;;8.60;46.31
59493;BME280;45497;43.996;22.876;2023-11-19T08:20:57;101489.94;;;8.69;46.53
59493;BME280;45497;43.996;22.876;2023-11-19T08:23:24;101488.66;;;8.44;45.85
59493;BME280;45497;43.996;22.876;2023-11-19T08:25:54;101480.47;;;8.47;46.57
59493;BME280;45497;43.996;22.876;2023-11-19T08:28:19;101490.19;;;8.56;46.33
59493;BME280;45497;43.996;22.876;2023-11-19T08:30:51;101485.34;;;8.80;46.14
59493;BME280;45497;43.996;22.876;2023-11-19T08:33:16;101487.44;;;8.87;45.12
59493;BME280;45497;43.996;22.876;2023-11-19T08:35:52;101478.25;;;8.81;45.05
59493;BME280;45497;43.996;22.876;2023-11-19T08:38:17;101476.16;;;8.75;44.96
59493;BME280;45497;43.996;22.876;2023-11-19T08:40:49;101476.72;;;8.88;45.69
59493;BME280;45497;43.996;22.876;2023-11-19T08:43:17;101487.13;;;8.99;45.63
59493;BME280;45497;43.996;22.876;2023-11-19T08:45:45;101492.72;;;9.06;45.12
59493;BME280;45497;43.996;22.876;2023-11-19T08:48:13;101498.41;;;9.02;44.49
59493;BME280;45497;43.996;22.876;2023-11-19T08:50:39;101486.88;;;9.03;44.88
59493;BME280;45497;43.996;22.876;2023-11-19T08:53:06;101478.09;;;9.12;45.08
59493;BME280;45497;43.996;22.876;2023-11-19T08:55:32;101480.00;;;9.19;45.12
59493;BME280;45497;43.996;22.876;2023-11-19T08:57:57;101475.72;;;9.18;44.78
59493;BME280;45497;43.996;22.876;2023-11-19T09:00:23;101480.19;;;9.08;45.03
59493;BME280;45497;43.996;22.876;2023-11-19T09:02:59;101483.19;;;9.23;44.49
59493;BME280;45497;43.996;22.876;2023-11-19T09:05:32;101471.00;;;9.03;44.64
59493;BME280;45497;43.996;22.876;2023-11-19T09:08:10;101453.00;;;9.16;45.23
59493;BME280;45497;43.996;22.876;2023-11-19T09:10:58;101460.06;;;9.35;44.57
59493;BME280;45497;43.996;22.876;2023-11-19T09:13:27;101448.41;;;9.28;44.56
59493;BME280;45497;43.996;22.876;2023-11-19T09:16:04;101450.81;;;9.59;44.20
59493;BME280;45497;43.996;22.876;2023-11-19T09:18:41;101431.84;;;9.26;44.41
59493;BME280;45497;43.996;22.876;2023-11-19T09:21:14;101431.78;;;9.35;44.39
59493;BME280;45497;43.996;22.876;2023-11-19T09:23:46;101444.91;;;9.65;44.23
59493;BME280;45497;43.996;22.876;2023-11-19T09:26:27;101444.97;;;9.55;43.50
59493;BME280;45497;43.996;22.876;2023-11-19T09:28:57;101437.28;;;9.24;44.30
59493;BME280;45497;43.996;22.876;2023-11-19T09:31:32;101421.91;;;9.37;44.26
59493;BME280;45497;43.996;22.876;2023-11-19T09:34:07;101414.44;;;9.61;44.12
59493;BME280;45497;43.996;22.876;2023-11-19T09:36:59;101424.22;;;9.50;43.44
59493;BME280;45497;43.996;22.876;2023-11-19T09:39:33;101429.63;;;9.86;43.94
59493;BME280;45497;43.996;22.876;2023-11-19T09:42:24;101425.75;;;9.81;43.37
59493;BME280;45497;43.996;22.876;2023-11-19T09:45:07;101418.59;;;9.91;43.01
59493;BME280;45497;43.996;22.876;2023-11-19T09:48:24;101415.50;;;9.68;43.32
59493;BME280;45497;43.996;22.876;2023-11-19T09:50:55;101416.66;;;9.65;43.41
59493;BME280;45497;43.996;22.876;2023-11-19T09:53:29;101404.53;;;9.90;43.18
59493;BME280;45497;43.996;22.876;2023-11-19T09:56:06;101413.31;;;9.91;42.69
59493;BME280;45497;43.996;22.876;2023-11-19T09:58:39;101406.22;;;9.64;42.74
59493;BME280;45497;43.996;22.876;2023-11-19T10:01:35;101396.63;;;9.81;42.56
59493;BME280;45497;43.996;22.876;2023-11-19T10:04:06;101391.19;;;9.82;42.52
59493;BME280;45497;43.996;22.876;2023-11-19T10:06:59;101380.84;;;9.61;42.64
59493;BME280;45497;43.996;22.876;2023-11-19T10:09:50;101386.09;;;9.71;43.39
59493;BME280;45497;43.996;22.876;2023-11-19T10:12:19;101389.50;;;9.81;42.33
59493;BME280;45497;43.996;22.876;2023-11-19T10:14:57;101395.16;;;9.41;42.02
59493;BME280;45497;43.996;22.876;2023-11-19T10:17:29;101406.53;;;9.51;42.92
59493;BME280;45497;43.996;22.876;2023-11-19T10:19:58;101391.72;;;9.86;42.88
59493;BME280;45497;43.996;22.876;2023-11-19T10:22:25;101377.84;;;10.20;43.16
59493;BME280;45497;43.996;22.876;2023-11-19T10:25:00;101389.09;;;10.04;42.47
59493;BME280;45497;43.996;22.876;2023-11-19T10:27:28;101389.63;;;10.07;41.78
59493;BME280;45497;43.996;22.876;2023-11-19T10:30:01;101365.84;;;9.80;41.49
59493;BME280;45497;43.996;22.876;2023-11-19T10:32:26;101365.16;;;9.95;41.76
59493;BME280;45497;43.996;22.876;2023-11-19T10:35:05;101360.13;;;10.02;41.17
59493;BME280;45497;43.996;22.876;2023-11-19T10:37:37;101355.72;;;9.93;41.67
59493;BME280;45497;43.996;22.876;2023-11-19T10:40:03;101355.63;;;10.03;42.20
59493;BME280;45497;43.996;22.876;2023-11-19T10:42:31;101346.81;;;9.94;41.68
59493;BME280;45497;43.996;22.876;2023-11-19T10:44:57;101350.88;;;10.06;41.63
59493;BME280;45497;43.996;22.876;2023-11-19T10:47:23;101356.88;;;10.26;41.90
59493;BME280;45497;43.996;22.876;2023-11-19T10:49:49;101349.31;;;10.31;41.37
59493;BME280;45497;43.996;22.876;2023-11-19T10:52:18;101346.44;;;10.43;41.28
59493;BME280;45497;43.996;22.876;2023-11-19T10:54:50;101348.88;;;10.36;41.56
59493;BME280;45497;43.996;22.876;2023-11-19T10:57:21;101353.75;;;9.95;41.43
59493;BME280;45497;43.996;22.876;2023-11-19T10:59:55;101344.91;;;10.22;41.34
59493;BME280;45497;43.996;22.876;2023-11-19T11:02:27;101344.31;;;10.28;41.04
59493;BME280;45497;43.996;22.876;2023-11-19T11:04:54;101345.78;;;10.41;41.25
59493;BME280;45497;43.996;22.876;2023-11-19T11:07:21;101336.91;;;10.32;40.98
59493;BME280;45497;43.996;22.876;2023-11-19T11:09:56;101325.00;;;10.36;41.52
59493;BME280;45497;43.996;22.876;2023-11-19T11:12:25;101335.06;;;9.97;40.97
59493;BME280;45497;43.996;22.876;2023-11-19T11:14:53;101349.25;;;9.77;41.24
59493;BME280;45497;43.996;22.876;2023-11-19T11:17:19;101345.75;;;10.05;41.38
59493;BME280;45497;43.996;22.876;2023-11-19T11:19:55;101335.22;;;9.95;40.38
59493;BME280;45497;43.996;22.876;2023-11-19T11:22:21;101333.78;;;10.19;41.00
59493;BME280;45497;43.996;22.876;2023-11-19T11:25:48;101324.84;;;10.20;40.55
59493;BME280;45497;43.996;22.876;2023-11-19T11:28:26;101314.16;;;10.47;40.46
59493;BME280;45497;43.996;22.876;2023-11-19T11:31:25;101312.38;;;10.48;40.41
59493;BME280;45497;43.996;22.876;2023-11-19T11:37:18;101305.41;;;10.11;40.44
59493;BME280;45497;43.996;22.876;2023-11-19T11:40:04;101293.84;;;9.94;40.58
59493;BME280;45497;43.996;22.876;2023-11-19T11:42:38;101291.09;;;10.40;40.52
59493;BME280;45497;43.996;22.876;2023-11-19T11:45:14;101287.53;;;10.31;39.70
59493;BME280;45497;43.996;22.876;2023-11-19T11:50:16;101274.53;;;10.02;39.44
59493;BME280;45497;43.996;22.876;2023-11-19T11:55:28;101274.56;;;10.28;39.59
59493;BME280;45497;43.996;22.876;2023-11-19T11:57:57;101277.63;;;9.97;38.83
59493;BME280;45497;43.996;22.876;2023-11-19T12:00:57;101257.28;;;9.98;39.34
59493;BME280;45497;43.996;22.876;2023-11-19T12:03:36;101268.22;;;10.03;39.51
59493;BME280;45497;43.996;22.876;2023-11-19T12:06:12;101242.38;;;9.97;39.45
59493;BME280;45497;43.996;22.876;2023-11-19T12:08:40;101258.13;;;10.24;39.69
59493;BME280;45497;43.996;22.876;2023-11-19T12:11:08;101258.09;;;10.34;39.62
59493;BME280;45497;43.996;22.876;2023-11-19T12:13:54;101243.84;;;10.35;39.53
59493;BME280;45497;43.996;22.876;2023-11-19T12:16:45;101243.16;;;10.33;39.10
59493;BME280;45497;43.996;22.876;2023-11-19T12:19:15;101232.94;;;10.20;38.62
59493;BME280;45497;43.996;22.876;2023-11-19T12:21:47;101238.09;;;10.22;38.54
59493;BME280;45497;43.996;22.876;2023-11-19T12:24:19;101239.59;;;10.24;38.49
59493;BME280;45497;43.996;22.876;2023-11-19T12:26:45;101240.09;;;10.46;38.08
59493;BME280;45497;43.996;22.876;2023-11-19T12:29:22;101226.59;;;10.57;37.89
59493;BME280;45497;43.996;22.876;2023-11-19T12:31:54;101230.06;;;10.31;37.45
59493;BME280;45497;43.996;22.876;2023-11-19T12:34:26;101239.63;;;10.50;38.24
59493;BME280;45497;43.996;22.876;2023-11-19T12:36:53;101246.34;;;10.63;36.89
59493;BME280;45497;43.996;22.876;2023-11-19T12:39:24;101243.13;;;10.51;37.36
59493;BME280;45497;43.996;22.876;2023-11-19T12:42:07;101223.16;;;10.65;37.06
59493;BME280;45497;43.996;22.876;2023-11-19T12:44:53;101231.97;;;10.74;37.55
59493;BME280;45497;43.996;22.876;2023-11-19T12:47:22;101234.84;;;10.54;37.33
59493;BME280;45497;43.996;22.876;2023-11-19T12:49:59;101229.69;;;10.44;37.64
59493;BME280;45497;43.996;22.876;2023-11-19T12:52:25;101224.56;;;10.51;37.42
59493;BME280;45497;43.996;22.876;2023-11-19T12:54:54;101218.00;;;10.63;37.81
59493;BME280;45497;43.996;22.876;2023-11-19T12:57:42;101225.66;;;10.66;37.37
59493;BME280;45497;43.996;22.876;2023-11-19T13:00:31;101212.41;;;10.66;37.12
59493;BME280;45497;43.996;22.876;2023-11-19T13:03:03;101234.38;;;10.59;37.17
59493;BME280;45497;43.996;22.876;2023-11-19T13:05:39;101226.38;;;10.85;37.54
59493;BME280;45497;43.996;22.876;2023-11-19T13:08:18;101226.75;;;10.98;37.62
59493;BME280;45497;43.996;22.876;2023-11-19T13:10:52;101219.72;;;11.15;37.43
59493;BME280;45497;43.996;22.876;2023-11-19T13:13:58;101229.66;;;11.21;37.36
59493;BME280;45497;43.996;22.876;2023-11-19T13:16:27;101218.47;;;10.93;36.90